Hlavní strana
METAR-TAF:

METAR-TAF

Letiště :

Letiště Jorgeho Newberyho

Buenos Aires, Argentina

zeměpisná šířka: 34-34S, zeměpisná délka: 058-25W, výška: 6 m

Aktuální stav počasí

Zpráva byla vytvořena před 59 minutami, v 13:00 UTC
Jihozápadní vítr 4 kt, proměnlivý mezi jižním a severozápadním
Teplota 25°C
Vlhkost vzduchu 69%
Tlak 1009 hPa
Viditelnost 10 km a více
Žádná oblačnost pod 1500 m, nevyskytují se cumulonimby.

METAR: SABE 181300Z 22004KT 170V310 CAVOK 25/19 Q1009 NOSIG

Čas: 10:59 (13:59 UTC)

Předpověď počasí

Zpráva byla vytvořena před 2 hodinami a 59 minutami, v 11:00 UTC
Předpověď platná od 18 v 12 UTC do 19 v 12 UTC
Jihozápadní vítr 10 kt
Viditelnost 10 km a více
Žádná oblačnost pod 1500 m, nevyskytují se cumulonimby.
Změna
od 18 v 19 UTC do 18 v 21 UTC
vítr z různých směrů 3 kt
Změna
od 19 v 03 UTC do 19 v 05 UTC
Východojihovýchodní vítr 15 kt

TAF: SABE 181100Z 1812/1912 23010KT CAVOK TX30/1819Z TN18/1911Z BECMG 1819/1821 VRB03KT BECMG 1903/1905 12015KT

Stav a předpovědi počasí z více než 4 000 letišť (zprávy METAR a TAF).

Červené a žluté tečky na mapě představují dostupné meteorologické stanice.

Když kurzor umístíte na tečku, zobrazí se název stanice.

Pak kliknutím zobrazíte stav a předpověď počasí.

Chcete-li změnit mapu, kliknutím na zelené tlačítko se znaménkem +mapu přiblížíte, kliknutím na zelené tlačítko se znaménkem – mapu oddálíte a kliknutím na zelené šipky přejdete na sousední mapy.


METAR-TAF: